createdAt,value
2017-09-09T00:00:11.649Z,983.34
2017-09-09T00:01:13.075Z,983.32
2017-09-09T00:02:14.494Z,983.30
2017-09-09T00:03:15.909Z,983.28
2017-09-09T00:04:17.328Z,983.26
2017-09-09T00:05:18.749Z,983.27
2017-09-09T00:06:20.168Z,983.27
2017-09-09T00:07:21.587Z,983.24
2017-09-09T00:08:23.005Z,983.24
2017-09-09T00:09:24.430Z,983.19
2017-09-09T00:10:25.842Z,983.13
2017-09-09T00:11:27.267Z,983.11
2017-09-09T00:12:28.684Z,983.08
2017-09-09T00:13:30.094Z,983.12
2017-09-09T00:14:31.509Z,983.16
2017-09-09T00:15:32.923Z,983.15
2017-09-09T00:16:34.336Z,983.13
2017-09-09T00:17:35.755Z,983.13
2017-09-09T00:18:37.173Z,983.12
2017-09-09T00:19:38.588Z,983.14
2017-09-09T00:20:40.017Z,983.19
2017-09-09T00:21:41.438Z,983.11
2017-09-09T00:22:42.857Z,983.07
2017-09-09T00:23:44.278Z,983.11
2017-09-09T00:24:45.694Z,983.10
2017-09-09T00:25:47.122Z,983.11
2017-09-09T00:26:48.537Z,983.06
2017-09-09T00:27:49.955Z,983.04
2017-09-09T00:28:51.377Z,983.08
2017-09-09T00:29:52.790Z,983.06
2017-09-09T00:30:54.208Z,983.06
2017-09-09T00:31:55.624Z,983.05
2017-09-09T00:32:57.049Z,983.08
2017-09-09T00:33:58.472Z,983.02
2017-09-09T00:34:59.892Z,983.03
2017-09-09T00:36:01.314Z,983.06
2017-09-09T00:37:02.734Z,983.04
2017-09-09T00:38:04.164Z,983.06
2017-09-09T00:39:05.580Z,983.00
2017-09-09T00:40:06.999Z,983.02
2017-09-09T00:41:08.422Z,983.01
2017-09-09T00:42:09.897Z,983.03
2017-09-09T00:43:11.321Z,983.01
2017-09-09T00:44:12.742Z,983.02
2017-09-09T00:45:14.164Z,983.01
2017-09-09T00:46:15.639Z,983.02
2017-09-09T00:47:17.057Z,983.01
2017-09-09T00:48:18.481Z,983.05
2017-09-09T00:49:19.901Z,983.04
2017-09-09T00:50:21.322Z,983.06
2017-09-09T00:51:22.748Z,983.03
2017-09-09T00:52:24.235Z,983.01
2017-09-09T00:53:25.700Z,983.05
2017-09-09T00:54:27.093Z,983.02
2017-09-09T00:55:28.513Z,983.02
2017-09-09T00:56:29.938Z,983.01
2017-09-09T00:57:31.362Z,983.06
2017-09-09T00:58:32.832Z,983.04
2017-09-09T00:59:34.308Z,983.05
2017-09-09T01:00:35.792Z,983.08
2017-09-09T01:01:37.217Z,983.09
2017-09-09T01:02:38.643Z,983.14
2017-09-09T01:03:40.076Z,983.05
2017-09-09T01:04:41.508Z,983.09
2017-09-09T01:05:42.930Z,983.14
2017-09-09T01:06:44.350Z,983.12
2017-09-09T01:07:45.762Z,983.06
2017-09-09T01:08:47.174Z,983.03
2017-09-09T01:09:48.608Z,983.05
2017-09-09T01:10:50.023Z,982.99
2017-09-09T01:11:51.450Z,983.01
2017-09-09T01:12:52.863Z,983.01
2017-09-09T01:13:54.282Z,983.02
2017-09-09T01:14:55.696Z,983.04
2017-09-09T01:15:57.111Z,982.98
2017-09-09T01:16:58.530Z,983.02
2017-09-09T01:17:59.946Z,983.00
2017-09-09T01:19:01.366Z,982.98
2017-09-09T01:20:02.785Z,983.00
2017-09-09T01:21:04.219Z,982.98
2017-09-09T01:22:05.639Z,982.98
2017-09-09T01:23:07.063Z,982.95
2017-09-09T01:24:08.478Z,982.97
2017-09-09T01:25:09.904Z,982.92
2017-09-09T01:26:11.317Z,982.93
2017-09-09T01:27:12.737Z,982.95
2017-09-09T01:28:14.163Z,982.88
2017-09-09T01:29:15.566Z,982.93
2017-09-09T01:30:16.986Z,982.89
2017-09-09T01:31:18.403Z,982.83
2017-09-09T01:32:19.817Z,982.85
2017-09-09T01:33:21.242Z,982.87
2017-09-09T01:34:22.665Z,982.83
2017-09-09T01:35:24.085Z,982.80
2017-09-09T01:36:25.514Z,982.76
2017-09-09T01:37:26.932Z,982.80
2017-09-09T01:38:28.355Z,982.77
2017-09-09T01:39:29.774Z,982.72
2017-09-09T01:40:31.201Z,982.78
2017-09-09T01:41:32.620Z,982.73
2017-09-09T01:42:34.096Z,982.72
2017-09-09T01:43:35.522Z,982.72
2017-09-09T01:44:36.938Z,982.71
2017-09-09T01:45:38.358Z,982.67
2017-09-09T01:46:39.792Z,982.65
2017-09-09T01:47:41.214Z,982.60
2017-09-09T01:48:42.638Z,982.59
2017-09-09T01:49:44.050Z,982.56
2017-09-09T01:50:45.473Z,982.52
2017-09-09T01:51:46.899Z,982.50
2017-09-09T01:52:48.316Z,982.43
2017-09-09T01:53:49.740Z,982.42
2017-09-09T01:54:51.155Z,982.42
2017-09-09T01:55:52.570Z,982.36
2017-09-09T01:56:53.982Z,982.38
2017-09-09T01:57:55.405Z,982.36
2017-09-09T01:58:56.823Z,982.33
2017-09-09T01:59:58.238Z,982.34
2017-09-09T02:00:59.654Z,982.31
2017-09-09T02:02:01.085Z,982.28
2017-09-09T02:03:02.498Z,982.26
2017-09-09T02:04:03.923Z,982.26
2017-09-09T02:05:05.338Z,982.32
2017-09-09T02:06:06.752Z,982.29
2017-09-09T02:07:08.171Z,982.33
2017-09-09T02:08:09.586Z,982.28
2017-09-09T02:09:11.015Z,982.24
2017-09-09T02:10:12.425Z,982.17
2017-09-09T02:11:13.843Z,982.18
2017-09-09T02:12:15.266Z,982.14
2017-09-09T02:13:16.682Z,982.13
2017-09-09T02:14:18.110Z,982.15
2017-09-09T02:15:19.526Z,982.14
2017-09-09T02:16:20.949Z,982.13
2017-09-09T02:17:22.358Z,982.12
2017-09-09T02:18:23.779Z,982.04
2017-09-09T02:19:25.209Z,982.11
2017-09-09T02:20:26.620Z,982.05
2017-09-09T02:21:28.054Z,982.04
2017-09-09T02:22:29.471Z,982.04
2017-09-09T02:23:30.891Z,982.01
2017-09-09T02:24:32.319Z,982.02
2017-09-09T02:25:33.735Z,981.98
2017-09-09T02:26:35.149Z,982.01
2017-09-09T02:27:36.569Z,981.98
2017-09-09T02:28:38.087Z,981.99
2017-09-09T02:29:39.549Z,982.02
2017-09-09T02:30:40.966Z,982.00
2017-09-09T02:31:42.386Z,982.02
2017-09-09T02:32:43.812Z,982.01
2017-09-09T02:33:45.230Z,982.00
2017-09-09T02:34:46.650Z,981.99
2017-09-09T02:35:48.070Z,981.96
2017-09-09T02:36:49.485Z,981.96
2017-09-09T02:37:50.931Z,981.97
2017-09-09T02:38:52.349Z,981.97
2017-09-09T02:39:53.764Z,981.90
2017-09-09T02:40:55.190Z,981.98
2017-09-09T02:41:56.616Z,981.97
2017-09-09T02:42:58.036Z,981.98
2017-09-09T02:43:59.455Z,981.97
2017-09-09T02:45:00.869Z,981.93
2017-09-09T02:46:02.284Z,981.91
2017-09-09T02:47:03.696Z,981.91
2017-09-09T02:48:05.109Z,981.93
2017-09-09T02:49:06.524Z,981.91
2017-09-09T02:50:07.935Z,981.89
2017-09-09T02:51:09.359Z,981.90
2017-09-09T02:52:10.785Z,981.90
2017-09-09T02:53:12.203Z,981.87
2017-09-09T02:54:13.655Z,981.86
2017-09-09T02:55:15.077Z,981.84
2017-09-09T02:56:16.496Z,981.86
2017-09-09T02:57:17.915Z,981.86
2017-09-09T02:58:19.331Z,981.87
2017-09-09T02:59:20.744Z,981.87
2017-09-09T03:00:22.164Z,981.83
2017-09-09T03:01:23.606Z,981.83
2017-09-09T03:02:25.035Z,981.80
2017-09-09T03:03:26.443Z,981.73
2017-09-09T03:04:27.855Z,981.75
2017-09-09T03:05:29.279Z,981.76
2017-09-09T03:06:30.693Z,981.80
2017-09-09T03:07:32.117Z,981.80
2017-09-09T03:08:33.546Z,981.78
2017-09-09T03:09:34.967Z,981.75
2017-09-09T03:10:36.382Z,981.74
2017-09-09T03:11:37.820Z,981.72
2017-09-09T03:12:39.245Z,981.72
2017-09-09T03:13:40.659Z,981.73
2017-09-09T03:14:42.078Z,981.69
2017-09-09T03:15:43.510Z,981.71
2017-09-09T03:16:44.928Z,981.75
2017-09-09T03:17:46.350Z,981.64
2017-09-09T03:18:47.850Z,981.62
2017-09-09T03:19:49.271Z,981.61
2017-09-09T03:20:50.697Z,981.56
2017-09-09T03:21:52.177Z,981.55
2017-09-09T03:22:53.707Z,981.58
2017-09-09T03:23:55.135Z,981.54
2017-09-09T03:24:56.558Z,981.58
2017-09-09T03:25:57.982Z,981.55
2017-09-09T03:26:59.402Z,981.55
2017-09-09T03:28:00.822Z,981.59
2017-09-09T03:29:02.246Z,981.51
2017-09-09T03:30:03.666Z,981.54
2017-09-09T03:31:05.082Z,981.55
2017-09-09T03:32:06.503Z,981.54
2017-09-09T03:33:07.918Z,981.60
2017-09-09T03:34:09.340Z,981.57
2017-09-09T03:35:10.760Z,981.53
2017-09-09T03:36:12.178Z,981.55
2017-09-09T03:37:13.594Z,981.55
2017-09-09T03:38:15.011Z,981.54
2017-09-09T03:39:16.424Z,981.51
2017-09-09T03:40:17.839Z,981.47
2017-09-09T03:41:19.263Z,981.45
2017-09-09T03:42:20.679Z,981.43
2017-09-09T03:43:22.094Z,981.46
2017-09-09T03:44:23.507Z,981.49
2017-09-09T03:45:24.928Z,981.48
2017-09-09T03:46:26.336Z,981.53
2017-09-09T03:47:27.755Z,981.52
2017-09-09T03:48:29.175Z,981.51
2017-09-09T03:49:30.588Z,981.46
2017-09-09T03:50:32.006Z,981.48
2017-09-09T03:51:33.428Z,981.47
2017-09-09T03:52:34.851Z,981.41
2017-09-09T03:53:36.263Z,981.40
2017-09-09T03:54:37.681Z,981.45
2017-09-09T03:55:39.101Z,981.44
2017-09-09T03:56:40.516Z,981.42
2017-09-09T03:57:41.941Z,981.40
2017-09-09T03:58:43.357Z,981.43
2017-09-09T03:59:44.786Z,981.40
2017-09-09T04:00:46.207Z,981.45
2017-09-09T04:01:47.629Z,981.43
2017-09-09T04:02:49.043Z,981.48
2017-09-09T04:03:50.459Z,981.47
2017-09-09T04:04:51.877Z,981.43
2017-09-09T04:05:53.288Z,981.46
2017-09-09T04:06:54.705Z,981.42
2017-09-09T04:07:56.220Z,981.40
2017-09-09T04:08:57.680Z,981.41
2017-09-09T04:09:59.095Z,981.39
2017-09-09T04:11:00.507Z,981.41
2017-09-09T04:12:01.927Z,981.41
2017-09-09T04:13:03.344Z,981.44
2017-09-09T04:14:04.761Z,981.41
2017-09-09T04:15:06.181Z,981.42
2017-09-09T04:16:07.597Z,981.40
2017-09-09T04:17:09.017Z,981.40
2017-09-09T04:18:10.446Z,981.44
2017-09-09T04:19:11.868Z,981.42
2017-09-09T04:20:13.280Z,981.47
2017-09-09T04:21:14.693Z,981.47
2017-09-09T04:22:16.111Z,981.46
2017-09-09T04:23:17.538Z,981.48
2017-09-09T04:24:18.960Z,981.49
2017-09-09T04:25:20.379Z,981.44
2017-09-09T04:26:21.791Z,981.45
2017-09-09T04:27:23.210Z,981.39
2017-09-09T04:28:24.633Z,981.47
2017-09-09T04:29:26.051Z,981.38
2017-09-09T04:30:27.463Z,981.38
2017-09-09T04:31:28.880Z,981.32
2017-09-09T04:32:30.293Z,981.32
2017-09-09T04:33:31.705Z,981.32
2017-09-09T04:34:33.118Z,981.30
2017-09-09T04:35:34.541Z,981.26
2017-09-09T04:36:35.962Z,981.28
2017-09-09T04:37:37.379Z,981.27
2017-09-09T04:38:38.798Z,981.30
2017-09-09T04:39:40.219Z,981.31
2017-09-09T04:40:41.636Z,981.30
2017-09-09T04:41:43.059Z,981.29
2017-09-09T04:42:44.467Z,981.38
2017-09-09T04:43:45.889Z,981.36
2017-09-09T04:44:47.307Z,981.33
2017-09-09T04:45:48.725Z,981.32
2017-09-09T04:46:50.165Z,981.25
2017-09-09T04:47:51.595Z,981.32
2017-09-09T04:48:53.007Z,981.31
2017-09-09T04:49:54.429Z,981.32
2017-09-09T04:50:55.846Z,981.24
2017-09-09T04:51:57.267Z,981.26
2017-09-09T04:52:58.694Z,981.22
2017-09-09T04:54:00.117Z,981.24
2017-09-09T04:55:01.537Z,981.25
2017-09-09T04:56:02.956Z,981.29
2017-09-09T04:57:04.372Z,981.31
2017-09-09T04:58:05.790Z,981.30
2017-09-09T04:59:07.208Z,981.29
2017-09-09T05:00:08.628Z,981.25
2017-09-09T05:01:10.050Z,981.28
2017-09-09T05:02:11.469Z,981.31
2017-09-09T05:03:12.892Z,981.30
2017-09-09T05:04:14.308Z,981.31
2017-09-09T05:05:15.728Z,981.30
2017-09-09T05:06:17.148Z,981.27
2017-09-09T05:07:18.568Z,981.24
2017-09-09T05:08:19.990Z,981.26
2017-09-09T05:09:21.407Z,981.26
2017-09-09T05:10:22.827Z,981.28
2017-09-09T05:11:24.246Z,981.26
2017-09-09T05:12:25.664Z,981.32
2017-09-09T05:13:27.082Z,981.27
2017-09-09T05:14:28.506Z,981.26
2017-09-09T05:15:29.927Z,981.26
2017-09-09T05:16:31.344Z,981.25
2017-09-09T05:17:32.766Z,981.20
2017-09-09T05:18:34.185Z,981.20
2017-09-09T05:19:35.599Z,981.16
2017-09-09T05:20:37.020Z,981.18
2017-09-09T05:21:38.439Z,981.22
2017-09-09T05:22:39.857Z,981.24
2017-09-09T05:23:41.286Z,981.25
2017-09-09T05:24:42.700Z,981.22
2017-09-09T05:25:44.120Z,981.24
2017-09-09T05:26:45.535Z,981.19
2017-09-09T05:27:46.957Z,981.19
2017-09-09T05:28:48.383Z,981.18
2017-09-09T05:29:49.808Z,981.18
2017-09-09T05:30:51.233Z,981.21
2017-09-09T05:31:52.658Z,981.22
2017-09-09T05:32:54.078Z,981.22
2017-09-09T05:33:55.570Z,981.23
2017-09-09T05:34:56.987Z,981.25
2017-09-09T05:35:58.411Z,981.26
2017-09-09T05:36:59.932Z,981.28
2017-09-09T05:38:01.350Z,981.25
2017-09-09T05:39:02.769Z,981.25
2017-09-09T05:40:04.188Z,981.30
2017-09-09T05:41:05.610Z,981.28
2017-09-09T05:42:07.041Z,981.23
2017-09-09T05:43:08.464Z,981.25
2017-09-09T05:44:09.877Z,981.27
2017-09-09T05:45:11.301Z,981.24
2017-09-09T05:46:12.723Z,981.28
2017-09-09T05:47:14.149Z,981.29
2017-09-09T05:48:15.563Z,981.34
2017-09-09T05:49:16.981Z,981.29
2017-09-09T05:50:18.411Z,981.26
2017-09-09T05:51:19.825Z,981.27
2017-09-09T05:52:21.249Z,981.30
2017-09-09T05:53:22.667Z,981.34
2017-09-09T05:54:24.093Z,981.30
2017-09-09T05:55:25.507Z,981.32
2017-09-09T05:56:26.923Z,981.32
2017-09-09T05:57:28.340Z,981.27
2017-09-09T05:58:29.767Z,981.34
2017-09-09T05:59:31.188Z,981.28
2017-09-09T06:00:32.606Z,981.31
2017-09-09T06:01:34.029Z,981.32
2017-09-09T06:02:35.452Z,981.27
2017-09-09T06:03:36.877Z,981.25
2017-09-09T06:04:38.299Z,981.20
2017-09-09T06:05:39.715Z,981.21
2017-09-09T06:06:41.127Z,981.20
2017-09-09T06:07:42.551Z,981.26
2017-09-09T06:08:43.967Z,981.24
2017-09-09T06:09:45.391Z,981.22
2017-09-09T06:10:46.811Z,981.17
2017-09-09T06:11:48.231Z,981.20
2017-09-09T06:12:49.649Z,981.18
2017-09-09T06:13:51.063Z,981.21
2017-09-09T06:14:52.478Z,981.29
2017-09-09T06:15:53.899Z,981.27
2017-09-09T06:16:55.328Z,981.23
2017-09-09T06:17:56.740Z,981.21
2017-09-09T06:18:58.162Z,981.26
2017-09-09T06:19:59.590Z,981.24
2017-09-09T06:21:01.007Z,981.26
2017-09-09T06:22:02.434Z,981.31
2017-09-09T06:23:03.851Z,981.27
2017-09-09T06:24:05.282Z,981.24
2017-09-09T06:25:06.702Z,981.22
2017-09-09T06:26:08.160Z,981.21
2017-09-09T06:27:09.596Z,981.21
2017-09-09T06:28:11.035Z,981.26
2017-09-09T06:29:12.451Z,981.28
2017-09-09T06:30:13.870Z,981.31
2017-09-09T06:31:15.293Z,981.31
2017-09-09T06:32:16.727Z,981.29
2017-09-09T06:33:18.141Z,981.31
2017-09-09T06:34:19.562Z,981.36
2017-09-09T06:35:20.984Z,981.28
2017-09-09T06:36:22.404Z,981.28
2017-09-09T06:37:23.826Z,981.35
2017-09-09T06:38:25.253Z,981.37
2017-09-09T06:39:26.673Z,981.40
2017-09-09T06:40:28.094Z,981.38
2017-09-09T06:41:29.525Z,981.42
2017-09-09T06:42:30.943Z,981.45
2017-09-09T06:43:32.362Z,981.41
2017-09-09T06:44:33.789Z,981.44
2017-09-09T06:45:35.205Z,981.41
2017-09-09T06:46:36.629Z,981.42
2017-09-09T06:47:38.060Z,981.41
2017-09-09T06:48:39.480Z,981.44
2017-09-09T06:49:40.900Z,981.49
2017-09-09T06:50:42.318Z,981.46
2017-09-09T06:51:43.751Z,981.42
2017-09-09T06:52:45.187Z,981.38
2017-09-09T06:53:46.605Z,981.38
2017-09-09T06:54:48.042Z,981.34
2017-09-09T06:55:49.457Z,981.44
2017-09-09T06:56:50.880Z,981.49
2017-09-09T06:57:52.310Z,981.44
2017-09-09T06:58:53.733Z,981.45
2017-09-09T06:59:55.159Z,981.42
2017-09-09T07:00:56.574Z,981.42
2017-09-09T07:01:58.001Z,981.43
2017-09-09T07:02:59.414Z,981.45
2017-09-09T07:04:00.844Z,981.46
2017-09-09T07:05:02.260Z,981.49
2017-09-09T07:06:03.689Z,981.53
2017-09-09T07:07:05.108Z,981.53
2017-09-09T07:08:06.538Z,981.51
2017-09-09T07:09:07.966Z,981.53
2017-09-09T07:10:09.388Z,981.51
2017-09-09T07:11:10.809Z,981.56
2017-09-09T07:12:12.299Z,981.56
2017-09-09T07:13:13.722Z,981.59
2017-09-09T07:14:15.143Z,981.63
2017-09-09T07:15:16.558Z,981.67
2017-09-09T07:16:18.029Z,981.72
2017-09-09T07:17:19.449Z,981.73
2017-09-09T07:18:20.868Z,981.75
2017-09-09T07:19:22.291Z,981.71
2017-09-09T07:20:23.715Z,981.71
2017-09-09T07:21:25.141Z,981.69
2017-09-09T07:22:26.566Z,981.64
2017-09-09T07:23:27.986Z,981.62
2017-09-09T07:24:29.408Z,981.60
2017-09-09T07:25:30.832Z,981.61
2017-09-09T07:26:32.253Z,981.63
2017-09-09T07:27:33.674Z,981.56
2017-09-09T07:28:35.091Z,981.56
2017-09-09T07:29:36.519Z,981.60
2017-09-09T07:30:37.936Z,981.67
2017-09-09T07:31:39.358Z,981.71
2017-09-09T07:32:40.779Z,981.68
2017-09-09T07:33:42.199Z,981.72
2017-09-09T07:34:43.625Z,981.68
2017-09-09T07:35:45.046Z,981.74
2017-09-09T07:36:46.466Z,981.67
2017-09-09T07:37:47.889Z,981.72
2017-09-09T07:38:49.321Z,981.70
2017-09-09T07:39:50.738Z,981.74
2017-09-09T07:40:52.160Z,981.75
2017-09-09T07:41:53.578Z,981.78
2017-09-09T07:42:55.000Z,981.76
2017-09-09T07:43:56.425Z,981.78
2017-09-09T07:44:57.846Z,981.84
2017-09-09T07:45:59.271Z,981.78
2017-09-09T07:47:00.700Z,981.82
2017-09-09T07:48:02.122Z,981.77
2017-09-09T07:49:03.545Z,981.78
2017-09-09T07:50:04.967Z,981.76
2017-09-09T07:51:06.392Z,981.78
2017-09-09T07:52:07.811Z,981.75
2017-09-09T07:53:09.229Z,981.83
2017-09-09T07:54:10.652Z,981.89
2017-09-09T07:55:12.076Z,981.86
2017-09-09T07:56:13.493Z,981.82
2017-09-09T07:57:14.914Z,981.85
2017-09-09T07:58:16.345Z,981.90
2017-09-09T07:59:17.762Z,981.85
2017-09-09T08:00:19.179Z,981.91
2017-09-09T08:01:20.602Z,981.93
2017-09-09T08:02:22.024Z,982.02
2017-09-09T08:03:23.449Z,982.00
2017-09-09T08:04:24.880Z,982.00
2017-09-09T08:05:26.308Z,982.00
2017-09-09T08:06:27.732Z,982.03
2017-09-09T08:07:29.158Z,982.08
2017-09-09T08:08:30.583Z,982.06
2017-09-09T08:09:32.001Z,982.03
2017-09-09T08:10:33.416Z,982.04
2017-09-09T08:11:34.841Z,982.03
2017-09-09T08:12:36.265Z,982.04
2017-09-09T08:13:37.692Z,982.03
2017-09-09T08:14:39.115Z,982.03
2017-09-09T08:15:40.532Z,982.03
2017-09-09T08:16:41.957Z,982.11
2017-09-09T08:17:43.386Z,982.15
2017-09-09T08:18:44.805Z,982.22
2017-09-09T08:19:46.227Z,982.20
2017-09-09T08:20:47.643Z,982.25
2017-09-09T08:21:49.060Z,982.24
2017-09-09T08:22:50.482Z,982.27
2017-09-09T08:23:51.913Z,982.30
2017-09-09T08:24:53.336Z,982.23
2017-09-09T08:25:54.755Z,982.27
2017-09-09T08:26:56.178Z,982.32
2017-09-09T08:27:57.611Z,982.30
2017-09-09T08:28:59.030Z,982.37
2017-09-09T08:30:00.447Z,982.28
2017-09-09T08:31:01.866Z,982.30
2017-09-09T08:32:03.296Z,982.36
2017-09-09T08:33:04.717Z,982.34
2017-09-09T08:34:06.143Z,982.26
2017-09-09T08:35:07.567Z,982.35
2017-09-09T08:36:08.988Z,982.36
2017-09-09T08:37:10.412Z,982.39
2017-09-09T08:38:11.834Z,982.43
2017-09-09T08:39:13.258Z,982.36
2017-09-09T08:40:14.681Z,982.49
2017-09-09T08:41:16.107Z,982.42
2017-09-09T08:42:17.534Z,982.49
2017-09-09T08:43:18.954Z,982.51
2017-09-09T08:44:20.371Z,982.50
2017-09-09T08:45:21.783Z,982.55
2017-09-09T08:46:23.202Z,982.53
2017-09-09T08:47:24.630Z,982.61
2017-09-09T08:48:26.052Z,982.55
2017-09-09T08:49:27.476Z,982.57
2017-09-09T08:50:28.893Z,982.54
2017-09-09T08:51:30.315Z,982.63
2017-09-09T08:52:31.795Z,982.66
2017-09-09T08:53:33.211Z,982.63
2017-09-09T08:54:34.638Z,982.68
2017-09-09T08:55:36.069Z,982.71
2017-09-09T08:56:37.496Z,982.67
2017-09-09T08:57:38.912Z,982.67
2017-09-09T08:58:40.341Z,982.68
2017-09-09T08:59:41.768Z,982.64
2017-09-09T09:00:43.188Z,982.58
2017-09-09T09:01:44.614Z,982.60
2017-09-09T09:02:46.047Z,982.75
2017-09-09T09:03:47.466Z,982.71
2017-09-09T09:04:48.892Z,982.70
2017-09-09T09:05:50.313Z,982.73
2017-09-09T09:06:51.738Z,982.72
2017-09-09T09:07:53.163Z,982.72
2017-09-09T09:08:54.582Z,982.74
2017-09-09T09:09:56.008Z,982.81
2017-09-09T09:10:57.432Z,982.84
2017-09-09T09:11:58.863Z,982.85
2017-09-09T09:13:00.288Z,982.87
2017-09-09T09:14:01.722Z,982.86
2017-09-09T09:15:03.143Z,982.81
2017-09-09T09:16:04.581Z,982.81
2017-09-09T09:17:06.003Z,982.77
2017-09-09T09:18:07.441Z,982.84
2017-09-09T09:19:08.862Z,982.78
2017-09-09T09:20:10.280Z,982.80
2017-09-09T09:21:11.716Z,982.82
2017-09-09T09:22:13.136Z,982.93
2017-09-09T09:23:14.571Z,982.99
2017-09-09T09:24:15.996Z,983.00
2017-09-09T09:25:17.419Z,983.11
2017-09-09T09:26:18.840Z,983.07
2017-09-09T09:27:20.263Z,983.07
2017-09-09T09:28:21.694Z,983.07
2017-09-09T09:29:23.129Z,983.13
2017-09-09T09:30:24.547Z,983.14
2017-09-09T09:31:25.975Z,983.16
2017-09-09T09:32:27.402Z,983.15
2017-09-09T09:33:28.828Z,983.17
2017-09-09T09:34:30.261Z,983.24
2017-09-09T09:35:31.691Z,983.16
2017-09-09T09:36:33.127Z,983.29
2017-09-09T09:37:34.546Z,983.28
2017-09-09T09:38:35.977Z,983.35
2017-09-09T09:39:37.398Z,983.36
2017-09-09T09:40:38.817Z,983.36
2017-09-09T09:41:40.245Z,983.40
2017-09-09T09:42:41.667Z,983.42
2017-09-09T09:43:43.102Z,983.38
2017-09-09T09:44:44.525Z,983.52
2017-09-09T09:45:45.956Z,983.55
2017-09-09T09:46:47.384Z,983.56
2017-09-09T09:47:48.803Z,983.48
2017-09-09T09:48:50.231Z,983.48
2017-09-09T09:49:51.732Z,983.51
2017-09-09T09:50:53.160Z,983.51
2017-09-09T09:51:54.584Z,983.55
2017-09-09T09:52:56.035Z,983.54
2017-09-09T09:53:57.458Z,983.51
2017-09-09T09:54:58.875Z,983.59
2017-09-09T09:56:00.312Z,983.68
2017-09-09T09:57:02.324Z,983.64
2017-09-09T09:58:03.762Z,983.68
2017-09-09T09:59:05.179Z,983.81
2017-09-09T10:00:06.600Z,983.74
2017-09-09T10:01:08.023Z,983.75
2017-09-09T10:02:09.459Z,983.69
2017-09-09T10:03:10.881Z,983.78
2017-09-09T10:04:12.305Z,983.77
2017-09-09T10:05:13.736Z,983.65
2017-09-09T10:06:15.164Z,983.67
2017-09-09T10:07:16.589Z,983.75
2017-09-09T10:08:18.020Z,983.71
2017-09-09T10:09:19.446Z,983.81
2017-09-09T10:10:20.870Z,983.80
2017-09-09T10:11:22.287Z,983.89
2017-09-09T10:12:23.710Z,983.88
2017-09-09T10:13:25.141Z,983.81
2017-09-09T10:14:26.560Z,983.78
2017-09-09T10:15:27.978Z,983.88
2017-09-09T10:16:29.404Z,983.89
2017-09-09T10:17:30.833Z,983.87
2017-09-09T10:18:32.261Z,983.92
2017-09-09T10:19:33.678Z,983.88
2017-09-09T10:20:35.109Z,983.87
2017-09-09T10:21:36.536Z,983.88
2017-09-09T10:22:37.955Z,983.97
2017-09-09T10:23:39.380Z,983.96
2017-09-09T10:24:40.802Z,984.04
2017-09-09T10:25:42.250Z,984.01
2017-09-09T10:26:43.763Z,984.04
2017-09-09T10:27:45.195Z,984.15
2017-09-09T10:28:46.624Z,984.10
2017-09-09T10:29:48.044Z,984.09
2017-09-09T10:30:49.474Z,984.09
2017-09-09T10:31:50.909Z,984.13
2017-09-09T10:32:52.336Z,984.15
2017-09-09T10:33:53.757Z,984.13
2017-09-09T10:34:55.191Z,984.19
2017-09-09T10:35:56.622Z,984.21
2017-09-09T10:36:58.134Z,984.14
2017-09-09T10:37:59.562Z,984.27
2017-09-09T10:39:00.984Z,984.26
2017-09-09T10:40:02.407Z,984.44
2017-09-09T10:41:03.899Z,984.36
2017-09-09T10:42:05.333Z,984.36
2017-09-09T10:43:06.761Z,984.75
2017-09-09T10:44:08.194Z,984.45
2017-09-09T10:45:09.629Z,984.58
2017-09-09T10:46:11.056Z,984.51
2017-09-09T10:47:12.483Z,984.49
2017-09-09T10:48:13.922Z,984.32
2017-09-09T10:49:15.353Z,984.49
2017-09-09T10:50:16.785Z,984.39
2017-09-09T10:51:18.216Z,984.42
2017-09-09T10:52:19.635Z,984.46
2017-09-09T10:53:21.057Z,984.30
2017-09-09T10:54:22.487Z,984.68
2017-09-09T10:55:23.938Z,984.67
2017-09-09T10:56:25.357Z,984.78
2017-09-09T10:57:26.788Z,984.67
2017-09-09T10:58:28.225Z,984.57
2017-09-09T10:59:29.651Z,984.50
2017-09-09T11:00:31.085Z,984.81
2017-09-09T11:01:32.518Z,984.68
2017-09-09T11:02:33.949Z,984.86
2017-09-09T11:03:35.383Z,984.61
2017-09-09T11:04:36.805Z,984.68
2017-09-09T11:05:38.231Z,984.75
2017-09-09T11:06:39.662Z,984.86
2017-09-09T11:07:41.098Z,984.95
2017-09-09T11:08:42.515Z,984.89
2017-09-09T11:09:43.946Z,984.88
2017-09-09T11:10:45.381Z,984.70
2017-09-09T11:11:46.816Z,984.71
2017-09-09T11:12:48.235Z,984.67
2017-09-09T11:13:49.658Z,984.59
2017-09-09T11:14:51.082Z,984.75
2017-09-09T11:15:52.508Z,984.59
2017-09-09T11:16:53.937Z,984.68
2017-09-09T11:17:55.356Z,984.68
2017-09-09T11:18:56.780Z,984.64
2017-09-09T11:19:58.204Z,984.64
2017-09-09T11:20:59.630Z,984.65
2017-09-09T11:22:01.086Z,984.62
2017-09-09T11:23:02.482Z,984.65
2017-09-09T11:24:03.922Z,984.63
2017-09-09T11:25:05.358Z,984.63
2017-09-09T11:26:06.785Z,984.61
2017-09-09T11:27:08.217Z,984.61
2017-09-09T11:28:09.646Z,984.67
2017-09-09T11:29:11.073Z,984.78
2017-09-09T11:30:12.502Z,984.78
2017-09-09T11:31:13.930Z,985.15
2017-09-09T11:32:15.373Z,985.22
2017-09-09T11:33:16.807Z,985.12
2017-09-09T11:34:18.254Z,985.19
2017-09-09T11:35:19.681Z,984.96
2017-09-09T11:36:21.104Z,985.47
2017-09-09T11:37:22.535Z,985.30
2017-09-09T11:38:23.971Z,985.24
2017-09-09T11:39:25.392Z,985.29
2017-09-09T11:40:26.820Z,985.15
2017-09-09T11:41:28.246Z,985.17
2017-09-09T11:42:29.685Z,985.11
2017-09-09T11:43:31.105Z,984.98
2017-09-09T11:44:32.526Z,985.12
2017-09-09T11:45:33.974Z,985.01
2017-09-09T11:46:35.400Z,984.97
2017-09-09T11:47:36.844Z,984.97
2017-09-09T11:48:38.275Z,984.98
2017-09-09T11:49:39.719Z,984.99
2017-09-09T11:50:41.152Z,985.07
2017-09-09T11:51:42.581Z,985.03
2017-09-09T11:52:44.070Z,985.13
2017-09-09T11:53:45.501Z,985.05
2017-09-09T11:54:46.921Z,985.12
2017-09-09T11:55:48.358Z,985.14
2017-09-09T11:56:49.777Z,985.25
2017-09-09T11:57:51.216Z,985.26
2017-09-09T11:58:52.644Z,985.08
2017-09-09T11:59:54.082Z,985.39
2017-09-09T12:00:55.510Z,985.21
2017-09-09T12:01:56.943Z,985.13
2017-09-09T12:02:58.367Z,985.33
2017-09-09T12:03:59.796Z,985.26
2017-09-09T12:05:01.218Z,985.39
2017-09-09T12:06:02.653Z,985.17
2017-09-09T12:07:04.083Z,985.35
2017-09-09T12:08:05.511Z,985.14
2017-09-09T12:09:06.957Z,985.33
2017-09-09T12:10:08.389Z,985.44
2017-09-09T12:11:09.815Z,985.60
2017-09-09T12:12:11.243Z,985.56
2017-09-09T12:13:12.667Z,985.26
2017-09-09T12:14:14.095Z,985.67
2017-09-09T12:15:15.524Z,985.77
2017-09-09T12:16:16.952Z,985.81
2017-09-09T12:17:18.381Z,985.86
2017-09-09T12:18:19.806Z,985.72
2017-09-09T12:19:21.241Z,985.80
2017-09-09T12:20:22.676Z,985.82
2017-09-09T12:21:24.098Z,985.68
2017-09-09T12:22:25.532Z,985.71
2017-09-09T12:23:26.968Z,985.72
2017-09-09T12:24:28.404Z,985.68
2017-09-09T12:25:29.828Z,985.66
2017-09-09T12:26:31.259Z,985.76
2017-09-09T12:27:32.689Z,985.69
2017-09-09T12:28:34.128Z,985.68
2017-09-09T12:29:35.573Z,985.81
2017-09-09T12:30:36.993Z,985.84
2017-09-09T12:31:38.415Z,985.95
2017-09-09T12:32:39.846Z,985.63
2017-09-09T12:33:41.273Z,985.44
2017-09-09T12:34:42.704Z,985.67
2017-09-09T12:35:44.146Z,985.85
2017-09-09T12:36:45.580Z,985.88
2017-09-09T12:37:46.999Z,985.84
2017-09-09T12:38:48.429Z,985.85
2017-09-09T12:39:49.851Z,985.92
2017-09-09T12:40:51.283Z,985.92
2017-09-09T12:41:52.707Z,985.86
2017-09-09T12:42:54.133Z,985.89
2017-09-09T12:43:55.576Z,985.93
2017-09-09T12:44:57.000Z,986.00
2017-09-09T12:45:58.445Z,985.90